Time;durP1;ratioP1;P1;durP2;ratioP2;P2;SDS_P1;SDS_P2;PMS_P1;PMS_P2;Temp;Humidity;BMP_temperature;BMP_pressure;BME280_temperature;BME280_humidity;BME280_pressure;Samples;Min_cycle;Max_cycle;Signal;HPM_P1;HPM_P2
2023/06/02 00:02:22;;;;;;;3.53;3.43;;;22.50;59.30;;;;;;5088986;27;43421;-74
2023/06/02 00:04:50;;;;;;;3.47;3.37;;;22.50;59.30;;;;;;5089276;28;43416;-74
2023/06/02 00:07:20;;;;;;;3.90;3.80;;;22.50;59.40;;;;;;5088211;28;43545;-75
2023/06/02 00:09:48;;;;;;;3.70;3.60;;;22.50;59.20;;;;;;5088145;28;43927;-75
2023/06/02 00:12:16;;;;;;;3.57;3.47;;;22.50;59.20;;;;;;5089447;27;43372;-75
2023/06/02 00:14:44;;;;;;;3.43;3.33;;;22.40;59.60;;;;;;5088734;27;43504;-75
2023/06/02 00:17:13;;;;;;;3.73;3.63;;;22.50;59.50;;;;;;5087746;28;43419;-74
2023/06/02 00:19:42;;;;;;;3.63;3.53;;;22.50;59.20;;;;;;5087428;27;43874;-75
2023/06/02 00:22:13;;;;;;;3.70;3.60;;;22.70;59.00;;;;;;5084576;27;43893;-75
2023/06/02 00:24:43;;;;;;;3.43;3.33;;;22.80;58.90;;;;;;5084292;28;43418;-75
2023/06/02 00:27:12;;;;;;;3.60;3.50;;;22.80;58.90;;;;;;5085750;28;43566;-75
2023/06/02 00:29:40;;;;;;;3.33;3.30;;;22.70;58.80;;;;;;5086878;28;45418;-75
2023/06/02 00:32:08;;;;;;;3.57;3.47;;;22.70;59.00;;;;;;5080646;28;44507;-75
2023/06/02 00:34:36;;;;;;;3.40;3.30;;;22.60;59.20;;;;;;5086007;27;43439;-75
2023/06/02 00:37:05;;;;;;;3.50;3.40;;;22.60;59.20;;;;;;5085040;27;43478;-75
2023/06/02 00:39:33;;;;;;;3.47;3.37;;;22.60;59.30;;;;;;5089100;27;43606;-75
2023/06/02 00:42:03;;;;;;;3.60;3.50;;;22.60;59.30;;;;;;5087976;27;43380;-74
2023/06/02 00:44:31;;;;;;;3.77;3.67;;;22.50;59.60;;;;;;5086984;28;43536;-72
2023/06/02 00:46:59;;;;;;;3.30;3.20;;;22.50;59.50;;;;;;5081733;28;44016;-74
2023/06/02 00:49:27;;;;;;;3.53;3.43;;;22.60;59.50;;;;;;5088348;28;43674;-75
2023/06/02 00:51:55;;;;;;;3.30;3.20;;;22.60;59.30;;;;;;5085352;27;43454;-75
2023/06/02 00:54:23;;;;;;;3.40;3.30;;;22.70;59.40;;;;;;5083602;28;43377;-75
2023/06/02 00:56:54;;;;;;;3.20;3.10;;;22.70;59.20;;;;;;5087174;28;43461;-74
2023/06/02 00:59:24;;;;;;;3.50;3.40;;;22.60;59.40;;;;;;5079051;28;43767;-75
2023/06/02 01:01:53;;;;;;;3.23;3.13;;;22.60;59.40;;;;;;5088257;27;43394;-75
2023/06/02 01:04:21;;;;;;;3.70;3.50;;;22.60;59.30;;;;;;5085830;28;43477;-75
2023/06/02 01:06:49;;;;;;;3.30;3.20;;;22.60;59.30;;;;;;5086439;28;45031;-75
2023/06/02 01:09:18;;;;;;;3.17;3.07;;;22.60;59.40;;;;;;5083833;27;43603;-75
2023/06/02 01:11:46;;;;;;;3.30;3.20;;;22.50;59.70;;;;;;5085366;27;43769;-74
2023/06/02 01:14:14;;;;;;;3.10;3.00;;;22.50;59.60;;;;;;5087368;28;43408;-75
2023/06/02 01:16:44;;;;;;;3.30;3.20;;;22.50;59.70;;;;;;5078302;27;43486;-74
2023/06/02 01:19:13;;;;;;;3.10;3.00;;;22.50;59.60;;;;;;5085829;28;43579;-75
2023/06/02 01:21:44;;;;;;;3.17;3.07;;;22.40;59.60;;;;;;5086289;28;44063;-75
2023/06/02 01:24:14;;;;;;;3.10;3.00;;;22.40;59.90;;;;;;5086553;28;43404;-73
2023/06/02 01:26:42;;;;;;;3.43;3.33;;;22.50;59.90;;;;;;5087539;27;43510;-75
2023/06/02 01:29:12;;;;;;;3.30;3.20;;;22.60;59.70;;;;;;5085532;28;45466;-75
2023/06/02 01:31:46;;;;;;;3.00;2.93;;;22.60;59.50;;;;;;5086004;28;44386;-75
2023/06/02 01:34:20;;;;;;;3.27;3.07;;;22.60;59.50;;;;;;5084511;27;43433;-75
2023/06/02 01:36:50;;;;;;;3.33;3.23;;;22.60;59.80;;;;;;5087936;28;43390;-76
2023/06/02 01:39:19;;;;;;;3.00;2.90;;;22.50;59.60;;;;;;5087381;28;43680;-75
2023/06/02 01:41:47;;;;;;;3.00;2.90;;;22.60;59.60;;;;;;5081760;28;44923;-74
2023/06/02 01:44:15;;;;;;;2.90;2.80;;;22.50;59.70;;;;;;5085942;28;43357;-75
2023/06/02 01:46:44;;;;;;;2.90;2.90;;;22.50;59.80;;;;;;5086332;28;43381;-75
2023/06/02 01:49:18;;;;;;;2.93;2.83;;;22.50;60.00;;;;;;5086055;28;45973;-75
2023/06/02 01:51:46;;;;;;;3.00;2.90;;;22.50;60.00;;;;;;5087533;28;43414;-75
2023/06/02 01:54:15;;;;;;;3.20;3.10;;;22.50;60.00;;;;;;5087335;27;43441;-75
2023/06/02 01:56:45;;;;;;;2.93;2.90;;;22.50;60.00;;;;;;5086563;28;43489;-75
2023/06/02 01:59:13;;;;;;;2.83;2.77;;;22.40;60.20;;;;;;5085302;28;44040;-75
2023/06/02 02:01:42;;;;;;;3.07;2.97;;;22.40;60.10;;;;;;5085157;28;44525;-75
2023/06/02 02:04:10;;;;;;;2.90;2.80;;;22.50;60.10;;;;;;5085075;27;43450;-74
2023/06/02 02:06:39;;;;;;;3.10;3.00;;;22.60;59.80;;;;;;5082281;28;43502;-75
2023/06/02 02:09:07;;;;;;;2.70;2.70;;;22.70;59.40;;;;;;5085962;27;43866;-75
2023/06/02 02:11:35;;;;;;;2.83;2.73;;;22.80;59.50;;;;;;5075950;28;43485;-75
2023/06/02 02:14:05;;;;;;;2.83;2.83;;;22.80;59.40;;;;;;5083752;28;43485;-75
2023/06/02 02:16:33;;;;;;;2.70;2.70;;;22.80;59.50;;;;;;5087194;27;43484;-75
2023/06/02 02:19:01;;;;;;;2.60;2.60;;;22.70;59.40;;;;;;5081551;28;43874;-74
2023/06/02 02:21:29;;;;;;;3.30;3.20;;;22.60;59.70;;;;;;5090913;27;43342;-74
2023/06/02 02:23:57;;;;;;;2.97;2.87;;;22.60;59.80;;;;;;5088454;28;43967;-74
2023/06/02 02:26:26;;;;;;;2.67;2.67;;;22.60;59.80;;;;;;5090828;28;43400;-74
2023/06/02 02:28:54;;;;;;;2.83;2.73;;;22.50;59.80;;;;;;5086663;28;43856;-73
2023/06/02 02:31:24;;;;;;;2.80;2.70;;;22.50;60.10;;;;;;5087411;28;44958;-75
2023/06/02 02:33:52;;;;;;;2.53;2.53;;;22.50;60.30;;;;;;5088449;28;43410;-74
2023/06/02 02:36:21;;;;;;;2.60;2.60;;;22.50;60.20;;;;;;5089179;28;43474;-74
2023/06/02 02:38:49;;;;;;;2.93;2.83;;;22.50;60.90;;;;;;5088065;27;45926;-74
2023/06/02 02:41:19;;;;;;;2.60;2.60;;;22.40;60.00;;;;;;5088383;27;43459;-74
2023/06/02 02:43:47;;;;;;;2.73;2.73;;;22.40;60.40;;;;;;5082535;28;44049;-74
2023/06/02 02:46:15;;;;;;;2.90;2.80;;;22.40;60.50;;;;;;5084673;28;43430;-75
2023/06/02 02:48:45;;;;;;;2.93;2.83;;;22.50;60.30;;;;;;5088751;28;45702;-75
2023/06/02 02:51:14;;;;;;;2.57;2.57;;;22.60;60.00;;;;;;5088423;28;44804;-74
2023/06/02 02:53:42;;;;;;;2.50;2.50;;;22.70;59.80;;;;;;5088599;28;43370;-74
2023/06/02 02:56:10;;;;;;;2.50;2.50;;;22.70;59.60;;;;;;5088804;27;43537;-75
2023/06/02 02:58:39;;;;;;;2.80;2.80;;;22.70;59.40;;;;;;5087982;28;44601;-74
2023/06/02 03:01:15;;;;;;;2.80;2.80;;;22.60;59.50;;;;;;5088262;28;44852;-74
2023/06/02 03:03:45;;;;;;;3.00;2.90;;;22.60;60.00;;;;;;5081496;28;43502;-75
2023/06/02 03:06:18;;;;;;;2.33;2.33;;;22.50;60.00;;;;;;5087681;28;43989;-74
2023/06/02 03:08:46;;;;;;;3.00;2.90;;;22.50;60.00;;;;;;5086143;28;46084;-75
2023/06/02 03:11:14;;;;;;;2.77;2.67;;;22.50;60.00;;;;;;5084265;28;43420;-73
2023/06/02 03:13:43;;;;;;;2.60;2.60;;;22.50;60.10;;;;;;5087398;28;43441;-73
2023/06/02 03:16:12;;;;;;;2.57;2.57;;;22.40;60.40;;;;;;5088437;27;43648;-74
2023/06/02 03:18:40;;;;;;;2.50;2.50;;;22.40;60.40;;;;;;5087780;28;45514;-73
2023/06/02 03:21:09;;;;;;;2.60;2.50;;;22.40;60.40;;;;;;5088236;27;44462;-75
2023/06/02 03:23:40;;;;;;;2.50;2.50;;;22.40;60.40;;;;;;5087728;28;44027;-73
2023/06/02 03:26:11;;;;;;;2.63;2.60;;;22.40;60.50;;;;;;5091056;27;43577;-74
2023/06/02 03:28:41;;;;;;;2.70;2.70;;;22.40;60.60;;;;;;5087825;27;44946;-75
2023/06/02 03:31:11;;;;;;;2.50;2.50;;;22.40;60.40;;;;;;5086711;28;43487;-74
2023/06/02 03:33:39;;;;;;;2.53;2.53;;;22.50;60.30;;;;;;5086183;28;43387;-74
2023/06/02 03:36:09;;;;;;;2.70;2.60;;;22.60;60.00;;;;;;5088303;28;43415;-74
2023/06/02 03:38:39;;;;;;;2.50;2.50;;;22.70;59.80;;;;;;5087453;28;45723;-75
2023/06/02 03:41:07;;;;;;;2.27;2.27;;;22.70;59.80;;;;;;5087965;28;44788;-74
2023/06/02 03:43:35;;;;;;;2.43;2.43;;;22.70;60.00;;;;;;5089396;27;43991;-75
2023/06/02 03:46:04;;;;;;;2.47;2.47;;;22.60;60.00;;;;;;5081204;28;43534;-74
2023/06/02 03:48:32;;;;;;;2.20;2.20;;;22.60;60.30;;;;;;5089252;27;43595;-74
2023/06/02 03:51:00;;;;;;;2.30;2.30;;;22.60;60.30;;;;;;5088354;27;43421;-75
2023/06/02 03:53:31;;;;;;;2.40;2.30;;;22.50;60.30;;;;;;5086789;27;43435;-74
2023/06/02 03:55:59;;;;;;;2.37;2.37;;;22.50;60.20;;;;;;5089755;27;43414;-75
2023/06/02 03:58:28;;;;;;;2.80;2.70;;;22.50;60.60;;;;;;5087841;28;44864;-74
2023/06/02 04:00:56;;;;;;;2.37;2.37;;;22.50;60.70;;;;;;5088613;27;43522;-74
2023/06/02 04:03:28;;;;;;;2.40;2.30;;;22.40;60.50;;;;;;5084355;28;44251;-74
2023/06/02 04:05:57;;;;;;;2.20;2.20;;;22.40;60.50;;;;;;5087874;28;43444;-75
2023/06/02 04:08:25;;;;;;;2.40;2.40;;;22.40;60.40;;;;;;5086869;28;46222;-74
2023/06/02 04:10:55;;;;;;;2.43;2.43;;;22.40;60.90;;;;;;5088073;28;43491;-75
2023/06/02 04:13:23;;;;;;;2.40;2.40;;;22.40;60.80;;;;;;5087159;28;43443;-74
2023/06/02 04:15:50;;;;;;;2.30;2.30;;;22.40;60.70;;;;;;5088643;28;43434;-75
2023/06/02 04:18:19;;;;;;;2.50;2.50;;;22.40;60.60;;;;;;5084949;28;45960;-75
2023/06/02 04:20:48;;;;;;;2.30;2.30;;;22.40;60.80;;;;;;5086109;28;44053;-75
2023/06/02 04:23:16;;;;;;;2.40;2.40;;;22.40;61.00;;;;;;5088554;27;43993;-74
2023/06/02 04:25:44;;;;;;;2.10;2.10;;;22.40;60.80;;;;;;5088378;28;43459;-72
2023/06/02 04:28:15;;;;;;;2.80;2.70;;;22.50;60.60;;;;;;5086517;28;45873;-74
2023/06/02 04:30:43;;;;;;;3.13;2.70;;;22.60;60.30;;;;;;5086525;27;44770;-73
2023/06/02 04:33:12;;;;;;;4.17;3.13;;;22.70;60.00;;;;;;5088091;27;43975;-74
2023/06/02 04:35:41;;;;;;;6.97;4.20;;;22.80;60.10;;;;;;5086947;27;43454;-75
2023/06/02 04:38:09;;;;;;;13.57;5.70;;;22.70;60.10;;;;;;5087816;27;44040;-74
2023/06/02 04:40:38;;;;;;;23.33;8.07;;;22.70;60.10;;;;;;5085373;27;44679;-74
2023/06/02 04:43:07;;;;;;;18.73;7.53;;;22.60;60.50;;;;;;5086437;28;43454;-74
2023/06/02 04:45:45;;;;;;;17.80;7.73;;;22.60;60.50;;;;;;5087869;28;43442;-74
2023/06/02 04:48:15;;;;;;;15.60;7.23;;;22.50;60.50;;;;;;5086324;27;43986;-74
2023/06/02 04:50:43;;;;;;;19.60;8.73;;;22.50;60.30;;;;;;5086522;28;44861;-75
2023/06/02 04:53:13;;;;;;;24.17;8.80;;;22.50;60.90;;;;;;5086553;27;43466;-74
2023/06/02 04:55:44;;;;;;;19.67;8.93;;;22.50;60.90;;;;;;5086337;28;43621;-73
2023/06/02 04:58:13;;;;;;;20.23;8.60;;;22.50;60.70;;;;;;5081465;28;45738;-74
2023/06/02 05:00:44;;;;;;;22.57;9.37;;;22.60;60.70;;;;;;5085996;28;44902;-74
2023/06/02 05:03:13;;;;;;;19.83;8.63;;;22.60;60.70;;;;;;5082880;28;43446;-73
2023/06/02 05:05:41;;;;;;;22.63;9.17;;;22.60;60.60;;;;;;5089711;27;43364;-74
2023/06/02 05:08:09;;;;;;;20.03;9.00;;;22.50;60.80;;;;;;5086344;28;45653;-74
2023/06/02 05:10:37;;;;;;;18.60;8.97;;;22.50;60.80;;;;;;5087065;27;43932;-75
2023/06/02 05:13:05;;;;;;;19.03;9.07;;;22.50;60.80;;;;;;5084647;28;43438;-74
2023/06/02 05:15:34;;;;;;;21.70;9.53;;;22.50;60.60;;;;;;5086305;28;43598;-75
2023/06/02 05:18:05;;;;;;;17.83;9.27;;;22.50;60.90;;;;;;5081543;28;45390;-74
2023/06/02 05:20:33;;;;;;;18.70;8.23;;;22.40;61.00;;;;;;5085772;28;44743;-74
2023/06/02 05:23:03;;;;;;;17.43;9.67;;;22.40;60.90;;;;;;5085976;28;43951;-74
2023/06/02 05:25:31;;;;;;;17.33;8.30;;;22.40;60.90;;;;;;5086520;27;43435;-73
2023/06/02 05:27:59;;;;;;;19.00;9.13;;;22.40;60.60;;;;;;5085911;28;45685;-74
2023/06/02 05:30:28;;;;;;;22.10;10.00;;;22.40;61.10;;;;;;5080892;28;44916;-74
2023/06/02 05:32:56;;;;;;;19.67;9.37;;;22.40;61.10;;;;;;5085601;27;43485;-74
2023/06/02 05:35:26;;;;;;;19.03;9.17;;;22.50;61.00;;;;;;5085363;28;43620;-74
2023/06/02 05:37:54;;;;;;;16.97;8.73;;;22.60;60.60;;;;;;5085012;27;43904;-75
2023/06/02 05:40:22;;;;;;;17.53;8.53;;;22.70;60.60;;;;;;5085479;28;44566;-74
2023/06/02 05:42:50;;;;;;;17.40;8.40;;;22.70;60.50;;;;;;5085784;28;44007;-74
2023/06/02 05:45:19;;;;;;;17.00;8.87;;;22.60;60.40;;;;;;5086150;27;43531;-74
2023/06/02 05:47:50;;;;;;;19.03;9.00;;;22.60;60.40;;;;;;5084912;28;45755;-74
2023/06/02 05:50:19;;;;;;;16.37;8.90;;;22.50;60.80;;;;;;5085447;28;43443;-75
2023/06/02 05:52:50;;;;;;;13.70;7.97;;;22.50;60.90;;;;;;5084762;28;43355;-74
2023/06/02 05:55:18;;;;;;;17.27;8.27;;;22.50;60.90;;;;;;5085654;28;43644;-74
2023/06/02 05:57:48;;;;;;;18.17;8.70;;;22.40;60.70;;;;;;5085573;27;45694;-74
2023/06/02 06:00:17;;;;;;;16.13;9.03;;;22.40;61.10;;;;;;5086933;27;43480;-75
2023/06/02 06:02:47;;;;;;;14.70;8.37;;;22.40;61.30;;;;;;5082543;27;43407;-75
2023/06/02 06:05:24;;;;;;;15.70;8.63;;;22.40;61.10;;;;;;5078860;28;43605;-75
2023/06/02 06:07:54;;;;;;;16.47;8.93;;;22.60;60.80;;;;;;5083526;28;44993;-74
2023/06/02 06:10:22;;;;;;;15.27;8.57;;;22.60;60.70;;;;;;5080616;28;43432;-74
2023/06/02 06:12:51;;;;;;;14.07;7.97;;;22.70;60.70;;;;;;5091679;27;43433;-73
2023/06/02 06:15:19;;;;;;;14.47;8.00;;;22.60;60.60;;;;;;5080550;28;43489;-73
2023/06/02 06:17:49;;;;;;;16.30;8.67;;;22.60;60.50;;;;;;5084498;28;45525;-75
2023/06/02 06:20:17;;;;;;;17.40;7.93;;;22.50;60.90;;;;;;5084830;28;43969;-75
2023/06/02 06:22:45;;;;;;;13.93;8.40;;;22.50;61.10;;;;;;5084643;28;43495;-74
2023/06/02 06:25:16;;;;;;;12.47;7.67;;;22.50;61.20;;;;;;5086516;28;43513;-74
2023/06/02 06:27:46;;;;;;;14.93;7.87;;;22.40;61.00;;;;;;5088187;27;44050;-74
2023/06/02 06:30:14;;;;;;;13.17;7.20;;;22.40;61.00;;;;;;5085382;28;44424;-73
2023/06/02 06:32:42;;;;;;;12.77;7.57;;;22.30;61.30;;;;;;5082453;28;43414;-74
2023/06/02 06:35:12;;;;;;;13.33;7.67;;;22.30;61.20;;;;;;5085206;28;43513;-75
2023/06/02 06:37:40;;;;;;;12.77;7.93;;;22.30;61.30;;;;;;5084804;28;45099;-75
2023/06/02 06:40:10;;;;;;;12.97;7.53;;;22.30;60.90;;;;;;5081467;27;43429;-75
2023/06/02 06:42:39;;;;;;;12.93;7.50;;;22.30;61.30;;;;;;5086879;27;43328;-75
2023/06/02 06:45:28;;;;;;;13.57;7.33;;;22.30;61.60;;;;;;5085087;28;43621;-74
2023/06/02 06:47:56;;;;;;;10.27;6.57;;;22.40;61.30;;;;;;5085684;28;45779;-74
2023/06/02 06:50:24;;;;;;;9.17;6.63;;;22.50;61.70;;;;;;5092760;27;43483;-74
2023/06/02 06:52:52;;;;;;;9.77;6.60;;;22.60;60.90;;;;;;5087281;27;43433;-75
2023/06/02 06:55:20;;;;;;;12.27;7.27;;;22.60;60.90;;;;;;5087615;28;44035;-74
2023/06/02 06:57:49;;;;;;;10.80;6.67;;;22.60;60.80;;;;;;5084109;28;45726;-75
2023/06/02 07:00:19;;;;;;;8.90;6.37;;;22.50;60.50;;;;;;5086164;27;43941;-73
2023/06/02 07:02:48;;;;;;;8.83;6.40;;;22.50;61.00;;;;;;5086921;27;43360;-74
2023/06/02 07:05:16;;;;;;;8.57;6.10;;;22.40;61.30;;;;;;5089334;28;43699;-73
2023/06/02 07:07:44;;;;;;;9.57;6.47;;;22.40;61.90;;;;;;5089358;27;43623;-74
2023/06/02 07:10:14;;;;;;;10.07;6.30;;;22.40;61.10;;;;;;5089003;27;44574;-74
2023/06/02 07:12:42;;;;;;;10.70;6.80;;;22.30;60.80;;;;;;5087981;28;43937;-75
2023/06/02 07:15:12;;;;;;;7.67;6.13;;;22.30;61.50;;;;;;5088462;28;44057;-75
2023/06/02 07:17:40;;;;;;;9.23;6.60;;;22.30;61.50;;;;;;5088401;28;45929;-74
2023/06/02 07:20:09;;;;;;;7.57;5.97;;;22.40;61.50;;;;;;5088231;28;44639;-75
2023/06/02 07:22:37;;;;;;;8.10;6.10;;;22.50;61.30;;;;;;5088573;27;43398;-75
2023/06/02 07:25:06;;;;;;;10.30;6.13;;;22.50;61.20;;;;;;5090415;27;43438;-75
2023/06/02 07:27:34;;;;;;;6.07;5.47;;;22.50;61.20;;;;;;5089569;27;43594;-75
2023/06/02 07:30:02;;;;;;;8.27;6.17;;;22.40;61.30;;;;;;5089388;27;43373;-74
2023/06/02 07:32:34;;;;;;;7.87;5.70;;;22.40;61.40;;;;;;5089878;27;43886;-71
2023/06/02 07:35:03;;;;;;;8.37;5.70;;;22.40;61.30;;;;;;5089251;27;43434;-74
2023/06/02 07:37:34;;;;;;;7.93;6.13;;;22.40;60.80;;;;;;5089964;27;43627;-74
2023/06/02 07:40:03;;;;;;;5.97;5.13;;;22.40;61.60;;;;;;5087987;28;43994;-75
2023/06/02 07:42:31;;;;;;;6.03;5.30;;;22.30;61.60;;;;;;5087599;28;43974;-74
2023/06/02 07:44:59;;;;;;;5.70;4.97;;;22.30;61.50;;;;;;5092906;27;43501;-75
2023/06/02 07:47:27;;;;;;;6.40;5.37;;;22.30;61.00;;;;;;5088845;27;43598;-74
2023/06/02 07:49:57;;;;;;;5.60;5.00;;;22.30;61.30;;;;;;5086412;28;43429;-74
2023/06/02 07:52:25;;;;;;;6.27;5.47;;;22.30;61.70;;;;;;5089620;27;43388;-74
2023/06/02 07:54:53;;;;;;;6.03;5.10;;;22.30;61.60;;;;;;5089944;27;43444;-75
2023/06/02 07:57:21;;;;;;;7.47;5.40;;;22.50;61.40;;;;;;5088051;28;45834;-74
2023/06/02 07:59:53;;;;;;;5.73;5.00;;;22.60;61.10;;;;;;5089324;27;43519;-74
2023/06/02 08:02:22;;;;;;;5.93;5.00;;;22.60;61.00;;;;;;5087920;28;43390;-74
2023/06/02 08:04:50;;;;;;;5.10;4.60;;;22.60;61.10;;;;;;5089845;27;43557;-75
2023/06/02 08:07:20;;;;;;;5.23;4.67;;;22.50;60.80;;;;;;5084752;27;43851;-74
2023/06/02 08:09:48;;;;;;;5.47;4.90;;;22.50;60.80;;;;;;5087421;28;44904;-75
2023/06/02 08:12:16;;;;;;;5.40;4.90;;;22.40;61.40;;;;;;5088924;28;43503;-74
2023/06/02 08:14:44;;;;;;;6.10;5.33;;;22.40;61.50;;;;;;5089057;27;43467;-75
2023/06/02 08:17:12;;;;;;;5.27;4.77;;;22.40;61.40;;;;;;5089161;27;44026;-74
2023/06/02 08:19:41;;;;;;;5.20;4.70;;;22.30;61.00;;;;;;5089154;27;43447;-74
2023/06/02 08:22:09;;;;;;;5.47;4.97;;;22.30;61.70;;;;;;5087462;27;43415;-74
2023/06/02 08:24:39;;;;;;;4.73;4.37;;;22.30;61.80;;;;;;5088953;28;43589;-74
2023/06/02 08:27:08;;;;;;;4.83;4.33;;;22.30;61.60;;;;;;5088400;27;43625;-75
2023/06/02 08:29:36;;;;;;;4.60;4.20;;;22.30;61.30;;;;;;5089118;27;43384;-73
2023/06/02 08:32:05;;;;;;;5.10;4.63;;;22.20;61.20;;;;;;5088821;27;43448;-75
2023/06/02 08:34:33;;;;;;;5.03;4.63;;;22.20;61.90;;;;;;5089169;27;43363;-72
2023/06/02 08:37:01;;;;;;;5.27;4.77;;;22.20;61.90;;;;;;5086677;27;45901;-74
2023/06/02 08:39:29;;;;;;;4.70;4.30;;;22.20;61.60;;;;;;5087316;28;44713;-74
2023/06/02 08:42:01;;;;;;;4.63;4.23;;;22.20;61.30;;;;;;5080109;27;43991;-74
2023/06/02 08:44:30;;;;;;;4.77;4.33;;;22.20;61.50;;;;;;5087497;28;43557;-74
2023/06/02 08:46:58;;;;;;;4.20;3.90;;;22.20;62.20;;;;;;5088604;28;43878;-74
2023/06/02 08:49:26;;;;;;;5.23;4.33;;;22.20;61.90;;;;;;5088388;27;43560;-74
2023/06/02 08:51:56;;;;;;;4.60;4.30;;;22.30;61.70;;;;;;5083246;28;44023;-74
2023/06/02 08:54:24;;;;;;;4.67;4.37;;;22.50;61.40;;;;;;5087435;28;43466;-72
2023/06/02 08:56:57;;;;;;;4.50;4.10;;;22.60;61.80;;;;;;5084762;28;43916;-74
2023/06/02 08:59:27;;;;;;;4.30;4.00;;;22.60;61.00;;;;;;5086993;28;43431;-74
2023/06/02 09:01:55;;;;;;;4.17;3.87;;;22.60;61.10;;;;;;5086969;28;43415;-74
2023/06/02 09:04:23;;;;;;;4.27;3.97;;;22.60;60.80;;;;;;5086460;28;43466;-75
2023/06/02 09:07:15;;;;;;;4.07;3.77;;;22.50;61.50;;;;;;5086886;28;45030;-75
2023/06/02 09:09:44;;;;;;;4.17;3.87;;;22.40;61.50;;;;;;5088529;27;43382;-74
2023/06/02 09:12:12;;;;;;;4.00;3.70;;;22.40;61.50;;;;;;5086958;28;43465;-74
2023/06/02 09:14:41;;;;;;;4.10;3.80;;;22.40;61.20;;;;;;5088467;27;43335;-74
2023/06/02 09:17:24;;;;;;;3.87;3.67;;;22.30;61.50;;;;;;5084542;28;45727;-76
2023/06/02 09:19:53;;;;;;;3.97;3.70;;;22.30;61.90;;;;;;5084601;28;44980;-75
2023/06/02 09:22:21;;;;;;;3.77;3.50;;;22.30;61.90;;;;;;5087840;27;43418;-76
2023/06/02 09:24:49;;;;;;;4.20;3.90;;;22.30;61.60;;;;;;5086419;28;43473;-75
2023/06/02 09:27:17;;;;;;;3.87;3.63;;;22.20;61.30;;;;;;5086514;27;43573;-75
2023/06/02 09:29:47;;;;;;;4.10;3.80;;;22.20;62.00;;;;;;5080845;28;44158;-74
2023/06/02 09:32:15;;;;;;;3.63;3.43;;;22.20;62.20;;;;;;5087131;27;43492;-75
2023/06/02 09:34:45;;;;;;;4.10;3.83;;;22.30;62.00;;;;;;5088513;27;43817;-75
2023/06/02 09:37:14;;;;;;;3.90;3.70;;;22.40;61.90;;;;;;5087215;27;45955;-75
2023/06/02 09:39:43;;;;;;;3.70;3.50;;;22.40;61.70;;;;;;5086115;27;43441;-75
2023/06/02 09:42:12;;;;;;;3.67;3.43;;;22.40;61.40;;;;;;5077838;28;43425;-75
2023/06/02 09:44:40;;;;;;;3.47;3.27;;;22.30;62.00;;;;;;5080435;28;43512;-75
2023/06/02 09:47:24;;;;;;;3.73;3.53;;;22.30;62.00;;;;;;5088695;27;44086;-75
2023/06/02 09:49:52;;;;;;;3.40;3.20;;;22.30;61.80;;;;;;5074906;28;44102;-75
2023/06/02 09:52:20;;;;;;;3.73;3.53;;;22.30;61.40;;;;;;5087971;27;43359;-75
2023/06/02 09:54:49;;;;;;;3.60;3.40;;;22.30;61.50;;;;;;5088126;27;43414;-75
2023/06/02 09:57:17;;;;;;;3.90;3.60;;;22.30;62.20;;;;;;5087724;27;43613;-74
2023/06/02 09:59:46;;;;;;;3.37;3.20;;;22.30;62.10;;;;;;5086331;28;44014;-75
2023/06/02 10:02:14;;;;;;;3.67;3.43;;;22.20;61.60;;;;;;5087708;27;43444;-75
2023/06/02 10:04:43;;;;;;;3.20;3.10;;;22.20;61.50;;;;;;5087137;27;43397;-75
2023/06/02 10:07:18;;;;;;;3.10;3.00;;;22.20;62.10;;;;;;5085350;28;45679;-75
2023/06/02 10:09:53;;;;;;;3.37;3.27;;;22.20;62.30;;;;;;5086927;28;43529;-75
2023/06/02 10:12:31;;;;;;;3.33;3.17;;;22.30;62.10;;;;;;5084047;28;43489;-75
2023/06/02 10:15:22;;;;;;;3.20;3.00;;;22.50;61.90;;;;;;5085436;27;43876;-75
2023/06/02 10:17:53;;;;;;;3.23;3.07;;;22.50;61.70;;;;;;5081814;28;43812;-74
2023/06/02 10:20:26;;;;;;;3.10;3.00;;;22.50;61.50;;;;;;5087452;28;43506;-75
2023/06/02 10:23:18;;;;;;;2.83;2.73;;;22.50;61.10;;;;;;5086316;27;44015;-75
2023/06/02 10:25:57;;;;;;;3.17;3.07;;;22.50;61.20;;;;;;5087738;27;43429;-75
2023/06/02 10:28:27;;;;;;;2.57;2.50;;;22.40;61.80;;;;;;5084588;28;43856;-75
2023/06/02 10:31:06;;;;;;;2.60;2.50;;;22.40;61.70;;;;;;5070718;28;44372;-75
2023/06/02 10:33:45;;;;;;;3.30;3.00;;;22.40;61.40;;;;;;5088247;27;43383;-75
2023/06/02 10:36:17;;;;;;;2.53;2.43;;;22.30;61.30;;;;;;5081444;27;43492;-75
2023/06/02 10:38:45;;;;;;;2.90;2.80;;;22.30;62.10;;;;;;5088352;27;45696;-75
2023/06/02 10:41:14;;;;;;;2.80;2.70;;;22.30;62.00;;;;;;5090870;27;43490;-75
2023/06/02 10:44:00;;;;;;;2.43;2.40;;;22.30;61.60;;;;;;5084694;27;43443;-75
2023/06/02 10:46:28;;;;;;;3.13;3.00;;;22.30;61.60;;;;;;5081690;28;43943;-75
2023/06/02 10:48:56;;;;;;;2.73;2.63;;;22.30;62.10;;;;;;5089149;28;46070;-75
2023/06/02 10:51:25;;;;;;;2.83;2.73;;;22.30;62.40;;;;;;5090373;28;43511;-76
2023/06/02 10:54:16;;;;;;;2.83;2.73;;;22.30;62.30;;;;;;5088961;28;43687;-75
2023/06/02 10:56:45;;;;;;;2.60;2.50;;;22.40;62.00;;;;;;5095250;27;43488;-74
2023/06/02 10:59:31;;;;;;;2.57;2.47;;;22.50;61.90;;;;;;5089987;28;44062;-75
2023/06/02 11:01:59;;;;;;;2.83;2.70;;;22.50;61.60;;;;;;5082563;28;45785;-75
2023/06/02 11:04:28;;;;;;;2.70;2.60;;;22.50;61.20;;;;;;5086233;27;43497;-75
2023/06/02 11:07:21;;;;;;;2.27;2.27;;;22.50;61.20;;;;;;5088749;27;43446;-75
2023/06/02 11:09:51;;;;;;;2.60;2.50;;;22.40;62.00;;;;;;5088986;27;43840;-75
2023/06/02 11:12:19;;;;;;;2.57;2.47;;;22.40;61.80;;;;;;5090473;27;43455;-75
2023/06/02 11:15:12;;;;;;;2.50;2.40;;;22.40;61.50;;;;;;5087989;28;44194;-75
2023/06/02 11:17:40;;;;;;;2.57;2.47;;;22.30;61.40;;;;;;5089991;27;43409;-75
2023/06/02 11:20:10;;;;;;;2.57;2.47;;;22.30;62.00;;;;;;5088849;27;43980;-75
2023/06/02 11:22:39;;;;;;;2.43;2.33;;;22.30;61.90;;;;;;5087459;28;43382;-75
2023/06/02 11:25:08;;;;;;;2.23;2.13;;;22.30;61.50;;;;;;5088945;27;43459;-75
2023/06/02 11:27:37;;;;;;;2.47;2.37;;;22.30;61.60;;;;;;5084910;28;43958;-75
2023/06/02 11:30:07;;;;;;;2.70;2.60;;;22.20;61.60;;;;;;5088873;27;43721;-75
2023/06/02 11:32:36;;;;;;;2.60;2.40;;;22.20;62.20;;;;;;5086576;27;43434;-75
2023/06/02 11:35:05;;;;;;;2.37;2.37;;;22.30;62.30;;;;;;5086138;27;43351;-75
2023/06/02 11:37:33;;;;;;;2.30;2.20;;;22.40;63.00;;;;;;5085820;28;43565;-75
2023/06/02 11:40:05;;;;;;;2.63;2.53;;;22.50;62.00;;;;;;5083426;28;45750;-74
2023/06/02 11:42:35;;;;;;;2.20;2.13;;;22.50;61.80;;;;;;5081417;28;44630;-75
2023/06/02 11:45:03;;;;;;;2.43;2.33;;;22.50;61.30;;;;;;5081364;28;43406;-74
2023/06/02 11:47:31;;;;;;;2.50;2.40;;;22.50;61.00;;;;;;5084719;27;43466;-75
2023/06/02 11:49:59;;;;;;;2.30;2.30;;;22.40;61.00;;;;;;5087371;27;43850;-75
2023/06/02 11:52:27;;;;;;;2.03;2.03;;;22.40;61.90;;;;;;5088471;27;43432;-74
2023/06/02 11:54:56;;;;;;;2.57;2.47;;;22.40;61.80;;;;;;5081549;28;43481;-74
2023/06/02 11:57:30;;;;;;;2.10;2.10;;;22.30;61.30;;;;;;5087966;28;43664;-74
2023/06/02 12:00:09;;;;;;;2.50;2.40;;;22.30;61.30;;;;;;5081086;28;45704;-74
2023/06/02 12:02:38;;;;;;;2.10;2.10;;;22.30;61.90;;;;;;5084099;28;43392;-73
2023/06/02 12:05:10;;;;;;;2.10;2.10;;;22.30;62.70;;;;;;5086660;27;43473;-73
2023/06/02 12:07:40;;;;;;;2.30;2.20;;;22.30;61.60;;;;;;5082392;28;43569;-74
2023/06/02 12:10:10;;;;;;;2.30;2.27;;;22.30;61.60;;;;;;5082246;28;43699;-74
2023/06/02 12:12:49;;;;;;;2.20;2.10;;;22.20;61.60;;;;;;5084704;28;43463;-75
2023/06/02 12:15:18;;;;;;;2.17;2.17;;;22.20;62.20;;;;;;5083596;28;43465;-75
2023/06/02 12:17:46;;;;;;;2.33;2.33;;;22.30;62.30;;;;;;5096987;27;43544;-75
2023/06/02 12:20:14;;;;;;;2.40;2.30;;;22.40;62.10;;;;;;5087021;27;43710;-74
2023/06/02 12:22:54;;;;;;;2.17;2.17;;;22.50;61.80;;;;;;5086803;27;43452;-74
2023/06/02 12:25:22;;;;;;;2.37;2.27;;;22.50;61.80;;;;;;5084191;28;43449;-73
2023/06/02 12:27:52;;;;;;;2.30;2.20;;;22.50;61.30;;;;;;5088057;27;43754;-74
2023/06/02 12:30:20;;;;;;;2.17;2.17;;;22.50;61.00;;;;;;5086776;27;43611;-73
2023/06/02 12:32:47;;;;;;;2.07;2.03;;;22.40;60.90;;;;;;5084824;28;44337;-73
2023/06/02 12:35:16;;;;;;;1.83;1.77;;;22.40;62.60;;;;;;5081386;27;43976;-74
2023/06/02 12:37:44;;;;;;;1.90;1.90;;;22.40;61.70;;;;;;5085408;28;45307;-73
2023/06/02 12:40:12;;;;;;;2.40;2.30;;;22.30;61.20;;;;;;5085526;27;43582;-74
2023/06/02 12:42:40;;;;;;;2.30;2.20;;;22.30;61.20;;;;;;5084521;27;43430;-74
2023/06/02 12:45:10;;;;;;;2.20;2.20;;;22.30;61.40;;;;;;5082561;28;43407;-73
2023/06/02 12:47:39;;;;;;;1.90;1.90;;;22.20;62.00;;;;;;5084066;27;43937;-73
2023/06/02 12:50:08;;;;;;;2.10;2.10;;;22.20;61.60;;;;;;5078606;28;45409;-74
2023/06/02 12:52:36;;;;;;;1.83;1.83;;;22.20;61.40;;;;;;5082917;28;44783;-73
2023/06/02 12:55:06;;;;;;;2.10;2.00;;;22.20;61.30;;;;;;5083905;28;44002;-73
2023/06/02 12:57:34;;;;;;;2.00;1.90;;;22.20;61.90;;;;;;5080424;28;43405;-73
2023/06/02 13:00:03;;;;;;;2.10;2.10;;;22.20;62.20;;;;;;5083635;27;43984;-73